createdAt,value
2022-12-31T00:01:14.429Z,91.40
2022-12-31T00:03:41.330Z,91.40
2022-12-31T00:06:16.389Z,91.40
2022-12-31T00:08:44.075Z,91.40
2022-12-31T00:11:10.915Z,91.50
2022-12-31T00:13:37.802Z,91.50
2022-12-31T00:16:12.287Z,91.50
2022-12-31T00:18:39.453Z,91.40
2022-12-31T00:21:07.893Z,91.40
2022-12-31T00:23:34.988Z,91.40
2022-12-31T00:26:09.472Z,91.40
2022-12-31T00:28:36.616Z,91.40
2022-12-31T00:31:07.314Z,91.30
2022-12-31T00:33:34.156Z,91.40
2022-12-31T00:36:28.158Z,91.40
2022-12-31T00:38:55.766Z,91.40
2022-12-31T00:41:22.842Z,91.40
2022-12-31T00:43:49.924Z,91.40
2022-12-31T00:46:16.876Z,91.40
2022-12-31T00:48:43.727Z,91.30
2022-12-31T00:51:11.746Z,91.30
2022-12-31T00:53:38.532Z,91.40
2022-12-31T00:56:07.619Z,91.40
2022-12-31T00:58:34.995Z,91.40
2022-12-31T01:01:12.351Z,91.40
2022-12-31T01:03:39.198Z,91.40
2022-12-31T01:06:06.372Z,91.50
2022-12-31T01:08:34.093Z,91.50
2022-12-31T01:11:19.286Z,91.50
2022-12-31T01:14:03.657Z,91.60
2022-12-31T01:16:41.864Z,91.60
2022-12-31T01:19:10.512Z,91.60
2022-12-31T01:21:38.287Z,91.50
2022-12-31T01:24:06.079Z,91.50
2022-12-31T01:26:33.760Z,91.40
2022-12-31T01:29:01.002Z,91.40
2022-12-31T01:31:27.917Z,91.40
2022-12-31T01:33:54.685Z,91.40
2022-12-31T01:36:26.117Z,91.50
2022-12-31T01:38:56.754Z,91.50
2022-12-31T01:41:25.502Z,91.50
2022-12-31T01:43:57.060Z,91.50
2022-12-31T01:46:23.764Z,91.40
2022-12-31T01:48:51.637Z,91.40
2022-12-31T01:51:18.397Z,91.30
2022-12-31T01:53:45.107Z,91.30
2022-12-31T01:56:11.808Z,91.30
2022-12-31T01:58:45.940Z,91.30
2022-12-31T02:01:14.990Z,91.60
2022-12-31T02:03:41.825Z,91.30
2022-12-31T02:06:20.224Z,91.20
2022-12-31T02:08:46.945Z,91.20
2022-12-31T02:11:26.079Z,91.20
2022-12-31T02:13:58.169Z,91.20
2022-12-31T02:16:43.319Z,91.50
2022-12-31T02:19:28.667Z,91.20
2022-12-31T02:21:58.351Z,91.10
2022-12-31T02:24:59.692Z,91.20
2022-12-31T02:27:49.716Z,91.20
2022-12-31T02:30:23.021Z,91.10
2022-12-31T02:32:58.055Z,91.00
2022-12-31T02:35:53.171Z,91.10
2022-12-31T02:38:31.423Z,91.10
2022-12-31T02:40:58.263Z,91.10
2022-12-31T02:43:25.316Z,91.10
2022-12-31T02:46:23.757Z,91.10
2022-12-31T02:48:57.420Z,91.10
2022-12-31T02:51:33.398Z,91.40
2022-12-31T02:54:23.204Z,91.00
2022-12-31T02:56:52.662Z,91.00
2022-12-31T02:59:41.242Z,91.00
2022-12-31T03:02:16.697Z,91.00
2022-12-31T03:04:55.154Z,91.00
2022-12-31T03:07:23.733Z,91.00
2022-12-31T03:09:50.553Z,91.10
2022-12-31T03:12:36.339Z,91.10
2022-12-31T03:15:06.692Z,91.10
2022-12-31T03:17:34.091Z,91.20
2022-12-31T03:20:19.370Z,91.30
2022-12-31T03:22:46.360Z,91.30
2022-12-31T03:25:33.873Z,91.40
2022-12-31T03:28:05.679Z,91.30
2022-12-31T03:30:32.562Z,91.30
2022-12-31T03:32:59.727Z,91.40
2022-12-31T03:35:27.633Z,91.40
2022-12-31T03:37:54.649Z,91.40
2022-12-31T03:40:22.122Z,91.50
2022-12-31T03:42:48.882Z,91.40
2022-12-31T03:45:15.659Z,91.50
2022-12-31T03:47:43.152Z,91.50
2022-12-31T03:50:10.870Z,91.60
2022-12-31T03:52:37.998Z,91.50
2022-12-31T03:55:05.318Z,91.50
2022-12-31T03:57:32.033Z,91.50
2022-12-31T03:59:58.771Z,91.50
2022-12-31T04:02:29.078Z,91.50
2022-12-31T04:04:56.344Z,91.90
2022-12-31T04:07:23.217Z,91.40
2022-12-31T04:09:49.923Z,91.80
2022-12-31T04:12:16.681Z,91.50
2022-12-31T04:14:44.516Z,91.50
2022-12-31T04:17:11.262Z,91.50
2022-12-31T04:19:37.994Z,91.50
2022-12-31T04:22:05.074Z,91.50
2022-12-31T04:24:31.840Z,91.50
2022-12-31T04:27:05.393Z,91.50
2022-12-31T04:29:34.180Z,91.40
2022-12-31T04:32:00.952Z,91.40
2022-12-31T04:34:27.670Z,91.50
2022-12-31T04:36:54.427Z,91.50
2022-12-31T04:39:21.171Z,91.40
2022-12-31T04:41:47.968Z,91.40
2022-12-31T04:44:15.901Z,91.40
2022-12-31T04:46:42.788Z,91.40
2022-12-31T04:49:09.607Z,91.30
2022-12-31T04:51:36.385Z,91.30
2022-12-31T04:54:03.285Z,91.30
2022-12-31T04:56:30.177Z,91.30
2022-12-31T04:58:56.915Z,91.50
2022-12-31T05:01:23.904Z,91.20
2022-12-31T05:03:51.395Z,91.30
2022-12-31T05:06:20.080Z,91.30
2022-12-31T05:08:47.778Z,91.30
2022-12-31T05:11:14.611Z,91.30
2022-12-31T05:13:42.612Z,91.30
2022-12-31T05:16:09.473Z,91.30
2022-12-31T05:18:36.291Z,91.30
2022-12-31T05:21:03.081Z,91.30
2022-12-31T05:23:29.800Z,91.30
2022-12-31T05:25:56.575Z,91.30
2022-12-31T05:28:23.272Z,91.20
2022-12-31T05:30:50.473Z,91.20
2022-12-31T05:33:18.924Z,91.60
2022-12-31T05:35:45.887Z,91.20
2022-12-31T05:38:13.619Z,91.30
2022-12-31T05:40:40.379Z,91.30
2022-12-31T05:43:07.173Z,91.20
2022-12-31T05:45:33.925Z,91.20
2022-12-31T05:48:00.655Z,91.20
2022-12-31T05:50:27.398Z,91.30
2022-12-31T05:52:54.168Z,91.30
2022-12-31T05:55:20.887Z,91.40
2022-12-31T05:57:48.878Z,91.30
2022-12-31T06:00:15.981Z,91.40
2022-12-31T06:02:42.737Z,91.30
2022-12-31T06:05:09.720Z,91.30
2022-12-31T06:07:36.461Z,91.30
2022-12-31T06:10:03.240Z,91.30
2022-12-31T06:12:30.069Z,91.30
2022-12-31T06:14:56.794Z,91.30
2022-12-31T06:17:23.598Z,91.30
2022-12-31T06:19:51.366Z,91.30
2022-12-31T06:22:18.075Z,91.30
2022-12-31T06:24:44.779Z,91.30
2022-12-31T06:27:11.518Z,91.30
2022-12-31T06:29:38.305Z,91.30
2022-12-31T06:32:05.435Z,91.40
2022-12-31T06:34:32.180Z,91.30
2022-12-31T06:36:59.353Z,91.30
2022-12-31T06:39:26.236Z,91.30
2022-12-31T06:41:53.111Z,91.30
2022-12-31T06:44:22.737Z,91.40
2022-12-31T06:46:50.425Z,91.20
2022-12-31T06:49:17.638Z,91.10
2022-12-31T06:51:46.169Z,91.10
2022-12-31T06:54:13.611Z,91.10
2022-12-31T06:56:40.825Z,91.10
2022-12-31T06:59:15.392Z,91.10
2022-12-31T07:01:45.339Z,91.20
2022-12-31T07:04:33.876Z,91.20
2022-12-31T07:07:22.743Z,91.10
2022-12-31T07:09:59.712Z,91.10
2022-12-31T07:13:04.604Z,91.20
2022-12-31T07:16:03.059Z,91.20
2022-12-31T07:18:48.142Z,91.30
2022-12-31T07:21:16.526Z,91.30
2022-12-31T07:23:43.502Z,91.30
2022-12-31T07:26:22.454Z,91.50
2022-12-31T07:29:12.108Z,91.50
2022-12-31T07:32:05.612Z,91.40
2022-12-31T07:34:54.731Z,91.70
2022-12-31T07:37:44.089Z,91.80
2022-12-31T07:40:35.405Z,91.90
2022-12-31T07:43:08.012Z,91.90
2022-12-31T07:45:34.715Z,92.10
2022-12-31T07:48:02.907Z,92.20
2022-12-31T07:50:30.244Z,92.00
2022-12-31T07:52:57.246Z,91.90
2022-12-31T07:55:24.500Z,92.00
2022-12-31T07:58:18.089Z,92.10
2022-12-31T08:00:44.848Z,92.10
2022-12-31T08:03:14.992Z,92.10
2022-12-31T08:05:58.470Z,92.20
2022-12-31T08:08:29.330Z,92.20
2022-12-31T08:11:11.452Z,92.20
2022-12-31T08:13:39.569Z,92.30
2022-12-31T08:16:11.802Z,92.30
2022-12-31T08:18:38.856Z,92.30
2022-12-31T08:21:29.619Z,92.30
2022-12-31T08:24:19.858Z,92.30
2022-12-31T08:27:25.244Z,92.20
2022-12-31T08:30:11.992Z,92.10
2022-12-31T08:32:44.435Z,92.20
2022-12-31T08:35:38.420Z,92.20
2022-12-31T08:38:24.921Z,92.20
2022-12-31T08:41:04.045Z,92.10
2022-12-31T08:43:38.271Z,92.20
2022-12-31T08:46:06.980Z,92.50
2022-12-31T08:48:38.757Z,92.10
2022-12-31T08:51:05.972Z,92.00
2022-12-31T08:53:32.975Z,92.00
2022-12-31T08:56:07.872Z,92.00
2022-12-31T08:59:15.576Z,91.90
2022-12-31T09:02:15.313Z,92.00
2022-12-31T09:05:04.209Z,91.90
2022-12-31T09:07:41.387Z,91.90
2022-12-31T09:10:21.435Z,91.90
2022-12-31T09:12:56.319Z,91.90
2022-12-31T09:15:43.728Z,91.90
2022-12-31T09:18:11.733Z,92.00
2022-12-31T09:20:43.782Z,92.00
2022-12-31T09:23:12.601Z,92.00
2022-12-31T09:26:01.234Z,91.90
2022-12-31T09:28:30.709Z,91.90
2022-12-31T09:31:01.937Z,91.90
2022-12-31T09:33:48.571Z,91.90
2022-12-31T09:36:19.257Z,91.80
2022-12-31T09:38:54.991Z,91.80
2022-12-31T09:41:57.666Z,91.80
2022-12-31T09:44:37.415Z,91.80
2022-12-31T09:47:28.292Z,91.80
2022-12-31T09:50:12.599Z,91.60
2022-12-31T09:52:54.351Z,91.70
2022-12-31T09:55:27.397Z,91.90
2022-12-31T09:58:20.155Z,91.90
2022-12-31T10:01:12.720Z,91.90
2022-12-31T10:04:01.259Z,91.80
2022-12-31T10:06:59.119Z,91.90
2022-12-31T10:09:44.759Z,91.80
2022-12-31T10:12:45.128Z,91.90
2022-12-31T10:15:48.519Z,91.80
2022-12-31T10:18:24.341Z,91.90
2022-12-31T10:21:09.784Z,91.80
2022-12-31T10:23:48.484Z,91.80
2022-12-31T10:26:24.367Z,91.80
2022-12-31T10:29:29.447Z,91.80
2022-12-31T10:32:05.035Z,91.70
2022-12-31T10:34:42.305Z,91.80
2022-12-31T10:37:24.054Z,91.80
2022-12-31T10:40:09.502Z,91.80
2022-12-31T10:42:57.992Z,91.70
2022-12-31T10:45:40.290Z,91.80
2022-12-31T10:48:44.399Z,91.80
2022-12-31T10:51:31.390Z,91.80
2022-12-31T10:54:07.434Z,91.90
2022-12-31T10:56:37.362Z,91.90
2022-12-31T10:59:22.797Z,91.90
2022-12-31T11:02:16.411Z,91.70
2022-12-31T11:04:58.242Z,91.70
2022-12-31T11:07:32.952Z,91.70
2022-12-31T11:10:52.304Z,91.80
2022-12-31T11:13:24.283Z,91.80
2022-12-31T11:16:15.502Z,91.80
2022-12-31T11:18:54.184Z,91.80
2022-12-31T11:21:55.430Z,93.00
2022-12-31T11:24:28.680Z,92.70
2022-12-31T11:27:01.968Z,92.50
2022-12-31T11:29:49.260Z,93.30
2022-12-31T11:32:21.216Z,94.40
2022-12-31T11:35:07.863Z,93.80
2022-12-31T11:37:52.749Z,93.60
2022-12-31T11:40:39.088Z,93.40
2022-12-31T11:43:24.033Z,93.30
2022-12-31T11:46:16.722Z,93.60
2022-12-31T11:49:20.400Z,93.60
2022-12-31T11:52:24.839Z,93.40
2022-12-31T11:55:13.878Z,93.40
2022-12-31T11:57:41.563Z,93.20
2022-12-31T12:00:22.225Z,93.20
2022-12-31T12:02:55.201Z,93.00
2022-12-31T12:05:24.268Z,93.10
2022-12-31T12:07:51.647Z,93.70
2022-12-31T12:10:54.847Z,93.50
2022-12-31T12:13:27.425Z,93.10
2022-12-31T12:16:07.527Z,93.50
2022-12-31T12:18:51.574Z,87.70
2022-12-31T12:21:22.452Z,70.70
2022-12-31T12:24:03.037Z,61.10
2022-12-31T12:26:45.476Z,65.10
2022-12-31T12:29:19.629Z,63.70
2022-12-31T12:32:02.588Z,65.10
2022-12-31T12:34:30.228Z,67.80
2022-12-31T12:36:57.206Z,69.40
2022-12-31T12:39:28.728Z,70.70
2022-12-31T12:42:10.535Z,70.40
2022-12-31T12:44:37.334Z,70.90
2022-12-31T12:47:06.341Z,71.30
2022-12-31T12:49:37.244Z,71.70
2022-12-31T12:52:16.171Z,72.20
2022-12-31T12:55:20.763Z,72.30
2022-12-31T12:58:05.906Z,72.70
2022-12-31T13:00:49.355Z,73.10
2022-12-31T13:04:23.780Z,73.50
2022-12-31T13:06:46.932Z,74.00
2022-12-31T13:09:19.639Z,74.20
2022-12-31T13:11:51.150Z,74.40
2022-12-31T13:14:39.162Z,74.80
2022-12-31T13:17:27.615Z,75.10
2022-12-31T13:20:03.816Z,75.70
2022-12-31T13:22:44.537Z,75.90
2022-12-31T13:25:22.942Z,76.20
2022-12-31T13:27:51.150Z,76.70
2022-12-31T13:30:20.664Z,76.60
2022-12-31T13:33:13.976Z,76.00
2022-12-31T13:36:05.365Z,76.10
2022-12-31T13:38:43.540Z,76.50
2022-12-31T13:41:34.519Z,78.30
2022-12-31T13:44:10.462Z,78.40
2022-12-31T13:46:46.390Z,77.90
2022-12-31T13:49:27.060Z,77.50
2022-12-31T13:52:02.152Z,78.10
2022-12-31T13:54:57.392Z,79.90
2022-12-31T13:57:29.039Z,82.10
2022-12-31T13:59:59.859Z,81.80
2022-12-31T14:02:37.718Z,82.70
2022-12-31T14:05:23.173Z,82.10
2022-12-31T14:07:54.574Z,82.30
2022-12-31T14:10:40.910Z,83.00
2022-12-31T14:13:27.828Z,83.20
2022-12-31T14:16:12.759Z,84.60
2022-12-31T14:18:57.144Z,82.20
2022-12-31T14:21:44.357Z,82.80
2022-12-31T14:24:35.418Z,83.60
2022-12-31T14:27:05.146Z,83.80
2022-12-31T14:29:37.369Z,84.50
2022-12-31T14:32:51.612Z,84.30
2022-12-31T14:35:24.350Z,90.00
2022-12-31T14:38:23.394Z,88.30
2022-12-31T14:41:18.275Z,88.90
2022-12-31T14:44:15.788Z,90.00
2022-12-31T14:46:59.176Z,94.70
2022-12-31T14:49:32.036Z,92.50
2022-12-31T14:52:14.387Z,91.20
2022-12-31T14:54:44.522Z,94.30
2022-12-31T14:57:17.106Z,91.40
2022-12-31T14:59:57.143Z,90.20
2022-12-31T15:02:35.312Z,92.10
2022-12-31T15:05:11.270Z,91.30
2022-12-31T15:07:49.661Z,90.70
2022-12-31T15:10:30.633Z,90.00
2022-12-31T15:13:06.388Z,91.20
2022-12-31T15:15:58.098Z,90.30
2022-12-31T15:18:59.630Z,90.10
2022-12-31T15:21:40.574Z,89.60
2022-12-31T15:24:20.544Z,89.00
2022-12-31T15:26:57.240Z,88.80
2022-12-31T15:29:43.538Z,88.10
2022-12-31T15:32:19.107Z,88.10
2022-12-31T15:34:45.827Z,87.80
2022-12-31T15:37:35.115Z,87.80
2022-12-31T15:40:17.892Z,87.70
2022-12-31T15:43:30.595Z,87.60
2022-12-31T15:45:57.407Z,87.20
2022-12-31T15:48:54.649Z,87.10
2022-12-31T15:51:29.517Z,87.40
2022-12-31T15:53:57.663Z,87.20
2022-12-31T15:56:36.994Z,85.20
2022-12-31T15:59:05.051Z,85.20
2022-12-31T16:01:35.809Z,85.60
2022-12-31T16:04:20.703Z,85.90
2022-12-31T16:06:50.625Z,85.60
2022-12-31T16:09:23.423Z,84.50
2022-12-31T16:11:50.276Z,84.40
2022-12-31T16:14:25.271Z,83.70
2022-12-31T16:16:59.001Z,84.00
2022-12-31T16:19:35.130Z,84.40
2022-12-31T16:22:07.918Z,84.60
2022-12-31T16:24:37.455Z,84.50
2022-12-31T16:27:15.164Z,84.70
2022-12-31T16:29:43.542Z,84.60
2022-12-31T16:32:16.173Z,84.30
2022-12-31T16:34:45.478Z,84.40
2022-12-31T16:37:19.144Z,84.40
2022-12-31T16:39:57.908Z,84.20
2022-12-31T16:42:28.046Z,83.90
2022-12-31T16:44:55.686Z,83.90
2022-12-31T16:47:23.930Z,83.90
2022-12-31T16:50:01.940Z,83.80
2022-12-31T16:52:32.918Z,84.00
2022-12-31T16:55:00.524Z,84.30
2022-12-31T16:57:28.986Z,83.50
2022-12-31T16:59:58.335Z,83.10
2022-12-31T17:02:38.565Z,83.20
2022-12-31T17:05:06.292Z,83.10
2022-12-31T17:07:33.350Z,82.60
2022-12-31T17:10:09.435Z,82.30
2022-12-31T17:13:25.033Z,82.10
2022-12-31T17:15:39.794Z,82.20
2022-12-31T17:18:06.890Z,82.10
2022-12-31T17:20:33.829Z,82.20
2022-12-31T17:23:09.281Z,82.20
2022-12-31T17:25:38.936Z,82.20
2022-12-31T17:28:22.330Z,82.50
2022-12-31T17:30:49.122Z,82.90
2022-12-31T17:33:21.764Z,83.10
2022-12-31T17:35:49.046Z,83.40
2022-12-31T17:38:21.797Z,83.60
2022-12-31T17:41:05.385Z,84.30
2022-12-31T17:43:36.246Z,84.40
2022-12-31T17:46:03.919Z,84.60
2022-12-31T17:48:32.436Z,85.00
2022-12-31T17:51:00.977Z,85.00
2022-12-31T17:53:28.094Z,85.20
2022-12-31T17:55:56.251Z,86.00
2022-12-31T17:58:42.162Z,85.90
2022-12-31T18:01:09.643Z,86.30
2022-12-31T18:03:36.518Z,86.00
2022-12-31T18:06:05.346Z,86.10
2022-12-31T18:08:32.892Z,85.60
2022-12-31T18:11:00.899Z,86.20
2022-12-31T18:13:27.839Z,85.80
2022-12-31T18:15:54.765Z,86.80
2022-12-31T18:18:25.209Z,86.10
2022-12-31T18:20:56.207Z,86.50
2022-12-31T18:23:26.888Z,92.90
2022-12-31T18:25:53.699Z,88.70
2022-12-31T18:28:20.698Z,88.40
2022-12-31T18:30:47.721Z,87.50
2022-12-31T18:33:16.843Z,90.00
2022-12-31T18:38:32.901Z,87.90
2022-12-31T18:41:00.800Z,88.00
2022-12-31T18:43:27.560Z,87.90
2022-12-31T18:45:54.299Z,87.50
2022-12-31T18:48:21.047Z,88.50
2022-12-31T18:50:47.895Z,90.00
2022-12-31T18:53:22.103Z,90.70
2022-12-31T18:55:53.142Z,91.00
2022-12-31T18:58:20.290Z,91.60
2022-12-31T19:00:47.487Z,92.50
2022-12-31T19:03:21.964Z,92.50
2022-12-31T19:05:50.638Z,92.30
2022-12-31T19:08:18.451Z,92.30
2022-12-31T19:10:45.187Z,92.20
2022-12-31T19:13:16.009Z,92.00
2022-12-31T19:15:44.675Z,92.30
2022-12-31T19:18:11.426Z,91.90
2022-12-31T19:20:38.947Z,91.40
2022-12-31T19:23:05.749Z,91.20
2022-12-31T19:25:34.328Z,91.40
2022-12-31T19:28:02.985Z,91.10
2022-12-31T19:30:31.816Z,91.40
2022-12-31T19:32:58.564Z,92.00
2022-12-31T19:35:26.759Z,91.70
2022-12-31T19:37:54.620Z,92.10
2022-12-31T19:40:27.213Z,92.30
2022-12-31T19:42:55.697Z,91.90
2022-12-31T19:45:27.301Z,93.30
2022-12-31T19:47:54.503Z,92.80
2022-12-31T19:50:23.549Z,93.20
2022-12-31T19:52:51.031Z,92.60
2022-12-31T19:55:19.508Z,92.60
2022-12-31T19:57:46.946Z,92.70
2022-12-31T20:00:14.878Z,92.70
2022-12-31T20:02:41.848Z,92.60
2022-12-31T20:05:11.238Z,92.80
2022-12-31T20:07:39.927Z,92.50
2022-12-31T20:10:09.610Z,92.40
2022-12-31T20:12:40.672Z,92.50
2022-12-31T20:15:10.845Z,92.40
2022-12-31T20:17:37.646Z,92.50
2022-12-31T20:20:05.416Z,92.50
2022-12-31T20:22:33.150Z,92.80
2022-12-31T20:24:59.871Z,92.50
2022-12-31T20:27:26.715Z,92.50
2022-12-31T20:29:53.430Z,92.50
2022-12-31T20:32:20.254Z,92.50
2022-12-31T20:34:46.975Z,93.00
2022-12-31T20:37:13.726Z,92.40
2022-12-31T20:39:40.567Z,92.40
2022-12-31T20:42:07.321Z,92.50
2022-12-31T20:44:34.120Z,92.30
2022-12-31T20:47:03.302Z,92.40
2022-12-31T20:50:00.878Z,92.30
2022-12-31T20:52:16.816Z,92.20
2022-12-31T20:54:43.521Z,92.10
2022-12-31T20:57:10.252Z,92.00
2022-12-31T20:59:36.983Z,92.00
2022-12-31T21:02:21.317Z,92.50
2022-12-31T21:04:48.742Z,92.20
2022-12-31T21:07:15.583Z,92.20
2022-12-31T21:09:42.312Z,92.80
2022-12-31T21:12:29.622Z,92.20
2022-12-31T21:14:56.409Z,92.70
2022-12-31T21:17:23.142Z,92.30
2022-12-31T21:19:49.840Z,92.10
2022-12-31T21:22:16.547Z,92.00
2022-12-31T21:24:43.273Z,92.30
2022-12-31T21:27:09.983Z,93.00
2022-12-31T21:29:55.648Z,92.90
2022-12-31T21:32:24.174Z,93.00
2022-12-31T21:35:14.725Z,92.70
2022-12-31T21:37:58.671Z,92.90
2022-12-31T21:40:24.337Z,92.70
2022-12-31T21:42:51.047Z,92.80
2022-12-31T21:45:17.758Z,92.70
2022-12-31T21:48:04.002Z,92.60
2022-12-31T21:50:30.745Z,92.50
2022-12-31T21:52:57.479Z,92.40
2022-12-31T21:55:42.925Z,92.40
2022-12-31T21:58:26.862Z,92.30
2022-12-31T22:01:14.012Z,92.30
2022-12-31T22:03:40.917Z,92.10
2022-12-31T22:06:21.097Z,92.10
2022-12-31T22:08:49.274Z,92.10
2022-12-31T22:11:16.372Z,92.10
2022-12-31T22:13:43.254Z,92.10
2022-12-31T22:16:10.241Z,92.10
2022-12-31T22:18:39.116Z,92.50
2022-12-31T22:21:13.748Z,92.50
2022-12-31T22:23:44.564Z,92.40
2022-12-31T22:26:13.068Z,92.20
2022-12-31T22:28:40.728Z,92.60
2022-12-31T22:31:13.950Z,92.40
2022-12-31T22:33:41.304Z,92.30
2022-12-31T22:36:10.997Z,92.40
2022-12-31T22:38:38.033Z,92.50
2022-12-31T22:41:26.190Z,92.60
2022-12-31T22:44:02.704Z,92.50
2022-12-31T22:46:31.247Z,92.60
2022-12-31T22:48:59.167Z,92.60
2022-12-31T22:51:54.571Z,92.60
2022-12-31T22:54:13.826Z,92.50
2022-12-31T22:56:40.872Z,92.70
2022-12-31T22:59:07.597Z,92.60
2022-12-31T23:01:36.020Z,92.50
2022-12-31T23:04:02.951Z,92.40
2022-12-31T23:06:29.824Z,92.40
2022-12-31T23:09:15.201Z,92.40
2022-12-31T23:11:43.276Z,92.50
2022-12-31T23:14:33.383Z,92.50
2022-12-31T23:17:31.542Z,92.50
2022-12-31T23:20:18.269Z,92.50
2022-12-31T23:23:04.221Z,92.50
2022-12-31T23:25:36.340Z,92.70
2022-12-31T23:28:03.314Z,92.60
2022-12-31T23:30:30.126Z,92.60
2022-12-31T23:32:56.849Z,92.70
2022-12-31T23:35:23.607Z,92.70
2022-12-31T23:37:50.411Z,92.80
2022-12-31T23:40:21.233Z,92.90
2022-12-31T23:42:49.122Z,92.90
2022-12-31T23:45:15.911Z,92.90
2022-12-31T23:47:45.461Z,92.80
2022-12-31T23:50:12.198Z,92.90
2022-12-31T23:52:38.935Z,92.90
2022-12-31T23:55:05.774Z,92.90
2022-12-31T23:57:32.487Z,92.90
2022-12-31T23:59:59.569Z,92.90
